sensor_id;sensor_type;location;lat;lon;timestamp;P1;durP1;ratioP1;P2;durP2;ratioP2
76477;SDS011;65309;49.790;18.972;2023-04-21T00:02:04;5.03;;;3.00;;
76477;SDS011;65309;49.790;18.972;2023-04-21T00:07:08;4.20;;;2.35;;
76477;SDS011;65309;49.790;18.972;2023-04-21T00:12:10;4.57;;;2.78;;
76477;SDS011;65309;49.790;18.972;2023-04-21T00:17:12;10.02;;;3.33;;
76477;SDS011;65309;49.790;18.972;2023-04-21T00:22:15;3.22;;;2.20;;
76477;SDS011;65309;49.790;18.972;2023-04-21T00:27:18;4.03;;;2.13;;
76477;SDS011;65309;49.790;18.972;2023-04-21T00:32:19;2.85;;;2.42;;
76477;SDS011;65309;49.790;18.972;2023-04-21T00:37:23;3.42;;;2.70;;
76477;SDS011;65309;49.790;18.972;2023-04-21T00:42:25;3.13;;;2.55;;
76477;SDS011;65309;49.790;18.972;2023-04-21T00:47:27;6.10;;;2.70;;
76477;SDS011;65309;49.790;18.972;2023-04-21T00:52:30;5.10;;;2.72;;
76477;SDS011;65309;49.790;18.972;2023-04-21T00:57:34;6.00;;;2.58;;
76477;SDS011;65309;49.790;18.972;2023-04-21T01:02:37;6.35;;;2.75;;
76477;SDS011;65309;49.790;18.972;2023-04-21T01:07:42;2.85;;;2.17;;
76477;SDS011;65309;49.790;18.972;2023-04-21T01:12:45;3.30;;;2.33;;
76477;SDS011;65309;49.790;18.972;2023-04-21T01:17:48;7.90;;;2.88;;
76477;SDS011;65309;49.790;18.972;2023-04-21T01:22:51;5.30;;;2.97;;
76477;SDS011;65309;49.790;18.972;2023-04-21T01:27:54;5.03;;;3.30;;
76477;SDS011;65309;49.790;18.972;2023-04-21T01:32:56;4.68;;;2.47;;
76477;SDS011;65309;49.790;18.972;2023-04-21T01:38:00;2.45;;;2.25;;
76477;SDS011;65309;49.790;18.972;2023-04-21T01:43:02;3.70;;;2.28;;
76477;SDS011;65309;49.790;18.972;2023-04-21T01:48:05;5.55;;;2.47;;
76477;SDS011;65309;49.790;18.972;2023-04-21T01:53:08;2.97;;;2.67;;
76477;SDS011;65309;49.790;18.972;2023-04-21T01:58:10;5.18;;;2.13;;
76477;SDS011;65309;49.790;18.972;2023-04-21T02:03:12;3.65;;;2.80;;
76477;SDS011;65309;49.790;18.972;2023-04-21T02:08:16;4.57;;;3.17;;
76477;SDS011;65309;49.790;18.972;2023-04-21T02:13:18;5.45;;;2.70;;
76477;SDS011;65309;49.790;18.972;2023-04-21T02:18:20;3.72;;;3.03;;
76477;SDS011;65309;49.790;18.972;2023-04-21T02:23:24;5.32;;;2.85;;
76477;SDS011;65309;49.790;18.972;2023-04-21T02:28:26;6.55;;;2.80;;
76477;SDS011;65309;49.790;18.972;2023-04-21T02:33:28;6.70;;;3.03;;
76477;SDS011;65309;49.790;18.972;2023-04-21T02:38:32;3.85;;;2.47;;
76477;SDS011;65309;49.790;18.972;2023-04-21T02:43:34;2.83;;;2.28;;
76477;SDS011;65309;49.790;18.972;2023-04-21T02:48:36;2.83;;;2.30;;
76477;SDS011;65309;49.790;18.972;2023-04-21T02:53:39;9.65;;;2.95;;
76477;SDS011;65309;49.790;18.972;2023-04-21T02:58:42;2.60;;;2.22;;
76477;SDS011;65309;49.790;18.972;2023-04-21T03:03:44;3.58;;;2.35;;
76477;SDS011;65309;49.790;18.972;2023-04-21T03:08:48;3.35;;;2.45;;
76477;SDS011;65309;49.790;18.972;2023-04-21T03:13:50;5.78;;;3.75;;
76477;SDS011;65309;49.790;18.972;2023-04-21T03:18:51;5.30;;;2.40;;
76477;SDS011;65309;49.790;18.972;2023-04-21T03:23:55;3.55;;;2.25;;
76477;SDS011;65309;49.790;18.972;2023-04-21T03:28:57;4.72;;;2.75;;
76477;SDS011;65309;49.790;18.972;2023-04-21T03:33:59;3.78;;;2.10;;
76477;SDS011;65309;49.790;18.972;2023-04-21T03:39:02;3.85;;;1.63;;
76477;SDS011;65309;49.790;18.972;2023-04-21T03:44:20;3.53;;;2.53;;
76477;SDS011;65309;49.790;18.972;2023-04-21T03:49:22;5.20;;;2.33;;
76477;SDS011;65309;49.790;18.972;2023-04-21T03:54:25;5.22;;;2.72;;
76477;SDS011;65309;49.790;18.972;2023-04-21T03:59:27;2.70;;;2.00;;
76477;SDS011;65309;49.790;18.972;2023-04-21T04:04:29;3.03;;;2.15;;
76477;SDS011;65309;49.790;18.972;2023-04-21T04:09:33;7.53;;;2.58;;
76477;SDS011;65309;49.790;18.972;2023-04-21T04:14:35;5.75;;;1.90;;
76477;SDS011;65309;49.790;18.972;2023-04-21T04:19:37;5.30;;;2.75;;
76477;SDS011;65309;49.790;18.972;2023-04-21T04:24:41;10.68;;;2.92;;
76477;SDS011;65309;49.790;18.972;2023-04-21T04:29:45;3.28;;;2.25;;
76477;SDS011;65309;49.790;18.972;2023-04-21T04:34:49;3.72;;;1.90;;
76477;SDS011;65309;49.790;18.972;2023-04-21T04:39:54;7.38;;;2.42;;
76477;SDS011;65309;49.790;18.972;2023-04-21T04:44:57;5.95;;;2.53;;
76477;SDS011;65309;49.790;18.972;2023-04-21T04:50:00;6.43;;;2.42;;
76477;SDS011;65309;49.790;18.972;2023-04-21T04:55:03;5.47;;;2.47;;
76477;SDS011;65309;49.790;18.972;2023-04-21T05:00:07;3.45;;;2.63;;
76477;SDS011;65309;49.790;18.972;2023-04-21T05:05:15;6.10;;;3.03;;
76477;SDS011;65309;49.790;18.972;2023-04-21T05:10:19;8.10;;;2.72;;
76477;SDS011;65309;49.790;18.972;2023-04-21T05:25:27;5.63;;;4.03;;
76477;SDS011;65309;49.790;18.972;2023-04-21T05:30:29;16.63;;;4.63;;
76477;SDS011;65309;49.790;18.972;2023-04-21T05:35:31;11.68;;;5.68;;
76477;SDS011;65309;49.790;18.972;2023-04-21T05:40:34;21.27;;;7.72;;
76477;SDS011;65309;49.790;18.972;2023-04-21T05:45:37;14.02;;;7.10;;
76477;SDS011;65309;49.790;18.972;2023-04-21T05:50:40;8.38;;;5.88;;
76477;SDS011;65309;49.790;18.972;2023-04-21T05:55:43;9.80;;;7.20;;
76477;SDS011;65309;49.790;18.972;2023-04-21T06:00:45;14.15;;;6.85;;
76477;SDS011;65309;49.790;18.972;2023-04-21T06:05:52;17.08;;;7.93;;
76477;SDS011;65309;49.790;18.972;2023-04-21T06:10:56;17.38;;;8.32;;
76477;SDS011;65309;49.790;18.972;2023-04-21T06:15:58;14.68;;;7.28;;
76477;SDS011;65309;49.790;18.972;2023-04-21T06:21:00;14.98;;;8.98;;
76477;SDS011;65309;49.790;18.972;2023-04-21T06:26:04;16.33;;;8.50;;
76477;SDS011;65309;49.790;18.972;2023-04-21T06:31:07;14.95;;;7.43;;
76477;SDS011;65309;49.790;18.972;2023-04-21T06:36:10;14.60;;;7.10;;
76477;SDS011;65309;49.790;18.972;2023-04-21T06:41:13;18.30;;;9.07;;
76477;SDS011;65309;49.790;18.972;2023-04-21T06:46:15;17.02;;;7.90;;
76477;SDS011;65309;49.790;18.972;2023-04-21T06:51:18;15.85;;;8.07;;
76477;SDS011;65309;49.790;18.972;2023-04-21T06:56:22;14.50;;;7.47;;
76477;SDS011;65309;49.790;18.972;2023-04-21T07:01:24;11.63;;;5.00;;
76477;SDS011;65309;49.790;18.972;2023-04-21T07:06:26;12.05;;;5.97;;
76477;SDS011;65309;49.790;18.972;2023-04-21T07:11:29;10.27;;;5.82;;
76477;SDS011;65309;49.790;18.972;2023-04-21T07:16:31;12.02;;;6.68;;
76477;SDS011;65309;49.790;18.972;2023-04-21T07:21:33;8.50;;;5.50;;
76477;SDS011;65309;49.790;18.972;2023-04-21T07:26:39;9.77;;;5.35;;
76477;SDS011;65309;49.790;18.972;2023-04-21T07:31:41;9.70;;;5.72;;
76477;SDS011;65309;49.790;18.972;2023-04-21T07:36:43;9.38;;;4.53;;
76477;SDS011;65309;49.790;18.972;2023-04-21T07:41:46;8.18;;;4.18;;
76477;SDS011;65309;49.790;18.972;2023-04-21T07:46:48;8.30;;;4.90;;
76477;SDS011;65309;49.790;18.972;2023-04-21T07:51:50;6.65;;;4.60;;
76477;SDS011;65309;49.790;18.972;2023-04-21T07:56:54;13.43;;;5.22;;
76477;SDS011;65309;49.790;18.972;2023-04-21T08:01:56;12.70;;;6.70;;
76477;SDS011;65309;49.790;18.972;2023-04-21T08:06:58;13.75;;;7.43;;
76477;SDS011;65309;49.790;18.972;2023-04-21T08:12:01;14.95;;;7.60;;
76477;SDS011;65309;49.790;18.972;2023-04-21T08:17:04;10.35;;;5.28;;
76477;SDS011;65309;49.790;18.972;2023-04-21T08:22:06;8.32;;;5.28;;
76477;SDS011;65309;49.790;18.972;2023-04-21T08:27:09;11.57;;;5.43;;
76477;SDS011;65309;49.790;18.972;2023-04-21T08:32:11;12.02;;;5.80;;
76477;SDS011;65309;49.790;18.972;2023-04-21T08:37:13;8.73;;;4.35;;
76477;SDS011;65309;49.790;18.972;2023-04-21T08:42:17;7.75;;;4.63;;
76477;SDS011;65309;49.790;18.972;2023-04-21T08:47:19;4.57;;;3.60;;
76477;SDS011;65309;49.790;18.972;2023-04-21T08:52:24;7.85;;;5.63;;
76477;SDS011;65309;49.790;18.972;2023-04-21T08:57:28;7.75;;;4.18;;
76477;SDS011;65309;49.790;18.972;2023-04-21T09:02:30;18.85;;;5.30;;
76477;SDS011;65309;49.790;18.972;2023-04-21T09:07:34;8.98;;;4.80;;
76477;SDS011;65309;49.790;18.972;2023-04-21T09:12:39;8.93;;;4.93;;
76477;SDS011;65309;49.790;18.972;2023-04-21T09:17:43;6.95;;;5.43;;
76477;SDS011;65309;49.790;18.972;2023-04-21T09:22:46;10.93;;;5.57;;
76477;SDS011;65309;49.790;18.972;2023-04-21T09:27:51;7.18;;;4.65;;
76477;SDS011;65309;49.790;18.972;2023-04-21T09:32:55;9.95;;;4.70;;
76477;SDS011;65309;49.790;18.972;2023-04-21T09:37:59;8.45;;;4.70;;
76477;SDS011;65309;49.790;18.972;2023-04-21T09:43:03;7.47;;;3.10;;
76477;SDS011;65309;49.790;18.972;2023-04-21T09:48:05;11.82;;;4.75;;
76477;SDS011;65309;49.790;18.972;2023-04-21T09:53:11;6.22;;;4.93;;
76477;SDS011;65309;49.790;18.972;2023-04-21T09:58:19;7.35;;;3.72;;
76477;SDS011;65309;49.790;18.972;2023-04-21T10:03:26;9.18;;;4.57;;
76477;SDS011;65309;49.790;18.972;2023-04-21T10:08:29;8.30;;;5.03;;
76477;SDS011;65309;49.790;18.972;2023-04-21T10:18:35;5.28;;;3.03;;
76477;SDS011;65309;49.790;18.972;2023-04-21T10:23:40;6.60;;;4.53;;
76477;SDS011;65309;49.790;18.972;2023-04-21T10:28:46;5.88;;;3.58;;
76477;SDS011;65309;49.790;18.972;2023-04-21T10:34:11;5.85;;;3.63;;
76477;SDS011;65309;49.790;18.972;2023-04-21T10:39:24;6.57;;;4.28;;
76477;SDS011;65309;49.790;18.972;2023-04-21T10:44:28;9.55;;;4.82;;
76477;SDS011;65309;49.790;18.972;2023-04-21T10:49:31;5.68;;;4.25;;
76477;SDS011;65309;49.790;18.972;2023-04-21T10:54:40;4.53;;;3.13;;
76477;SDS011;65309;49.790;18.972;2023-04-21T10:59:48;9.45;;;5.03;;
76477;SDS011;65309;49.790;18.972;2023-04-21T11:04:51;9.98;;;4.35;;
76477;SDS011;65309;49.790;18.972;2023-04-21T11:09:55;6.78;;;4.55;;
76477;SDS011;65309;49.790;18.972;2023-04-21T11:15:01;8.30;;;5.13;;
76477;SDS011;65309;49.790;18.972;2023-04-21T11:20:05;4.65;;;3.10;;
76477;SDS011;65309;49.790;18.972;2023-04-21T11:25:15;7.40;;;5.40;;
76477;SDS011;65309;49.790;18.972;2023-04-21T11:30:19;5.97;;;4.43;;
76477;SDS011;65309;49.790;18.972;2023-04-21T11:35:22;10.25;;;5.55;;
76477;SDS011;65309;49.790;18.972;2023-04-21T11:40:24;9.63;;;6.55;;
76477;SDS011;65309;49.790;18.972;2023-04-21T11:45:27;9.77;;;7.50;;
76477;SDS011;65309;49.790;18.972;2023-04-21T11:50:29;5.88;;;5.10;;
76477;SDS011;65309;49.790;18.972;2023-04-21T11:55:33;9.18;;;6.15;;
76477;SDS011;65309;49.790;18.972;2023-04-21T12:05:38;10.27;;;4.97;;
76477;SDS011;65309;49.790;18.972;2023-04-21T12:10:43;9.18;;;5.18;;
76477;SDS011;65309;49.790;18.972;2023-04-21T12:15:46;9.05;;;5.30;;
76477;SDS011;65309;49.790;18.972;2023-04-21T12:20:50;7.20;;;3.92;;
76477;SDS011;65309;49.790;18.972;2023-04-21T12:25:53;8.82;;;6.38;;
76477;SDS011;65309;49.790;18.972;2023-04-21T12:30:57;7.15;;;4.20;;
76477;SDS011;65309;49.790;18.972;2023-04-21T12:35:59;7.13;;;4.85;;
76477;SDS011;65309;49.790;18.972;2023-04-21T12:41:01;7.53;;;5.47;;
76477;SDS011;65309;49.790;18.972;2023-04-21T12:46:04;6.50;;;5.53;;
76477;SDS011;65309;49.790;18.972;2023-04-21T12:51:06;7.57;;;4.72;;
76477;SDS011;65309;49.790;18.972;2023-04-21T12:56:08;6.47;;;5.70;;
76477;SDS011;65309;49.790;18.972;2023-04-21T13:06:16;4.57;;;3.83;;
76477;SDS011;65309;49.790;18.972;2023-04-21T13:11:18;6.53;;;5.65;;
76477;SDS011;65309;49.790;18.972;2023-04-21T13:16:21;8.07;;;5.18;;
76477;SDS011;65309;49.790;18.972;2023-04-21T13:21:24;5.10;;;3.22;;
76477;SDS011;65309;49.790;18.972;2023-04-21T13:26:26;5.53;;;3.97;;
76477;SDS011;65309;49.790;18.972;2023-04-21T13:31:29;11.45;;;4.47;;
76477;SDS011;65309;49.790;18.972;2023-04-21T13:36:33;6.75;;;4.72;;
76477;SDS011;65309;49.790;18.972;2023-04-21T13:41:35;5.72;;;3.97;;
76477;SDS011;65309;49.790;18.972;2023-04-21T13:46:38;5.05;;;3.42;;
76477;SDS011;65309;49.790;18.972;2023-04-21T13:51:40;7.88;;;4.53;;
76477;SDS011;65309;49.790;18.972;2023-04-21T13:56:42;6.90;;;4.90;;
76477;SDS011;65309;49.790;18.972;2023-04-21T14:01:46;6.00;;;4.07;;
76477;SDS011;65309;49.790;18.972;2023-04-21T14:06:48;5.80;;;4.63;;
76477;SDS011;65309;49.790;18.972;2023-04-21T14:11:51;5.55;;;4.32;;
76477;SDS011;65309;49.790;18.972;2023-04-21T14:16:54;5.82;;;5.20;;
76477;SDS011;65309;49.790;18.972;2023-04-21T14:21:57;6.35;;;4.75;;
76477;SDS011;65309;49.790;18.972;2023-04-21T14:26:59;5.63;;;4.00;;
76477;SDS011;65309;49.790;18.972;2023-04-21T14:37:05;6.47;;;3.30;;
76477;SDS011;65309;49.790;18.972;2023-04-21T14:42:07;7.75;;;5.13;;
76477;SDS011;65309;49.790;18.972;2023-04-21T14:47:10;6.78;;;4.20;;
76477;SDS011;65309;49.790;18.972;2023-04-21T14:52:13;4.82;;;3.53;;
76477;SDS011;65309;49.790;18.972;2023-04-21T15:02:23;6.97;;;3.55;;
76477;SDS011;65309;49.790;18.972;2023-04-21T15:07:27;7.57;;;4.30;;
76477;SDS011;65309;49.790;18.972;2023-04-21T15:12:32;6.43;;;4.32;;
76477;SDS011;65309;49.790;18.972;2023-04-21T15:17:42;6.82;;;3.40;;
76477;SDS011;65309;49.790;18.972;2023-04-21T15:22:44;4.82;;;3.50;;
76477;SDS011;65309;49.790;18.972;2023-04-21T15:27:46;5.32;;;3.50;;
76477;SDS011;65309;49.790;18.972;2023-04-21T15:32:50;5.63;;;3.95;;
76477;SDS011;65309;49.790;18.972;2023-04-21T15:37:52;5.50;;;3.67;;
76477;SDS011;65309;49.790;18.972;2023-04-21T15:42:54;8.52;;;4.68;;
76477;SDS011;65309;49.790;18.972;2023-04-21T15:47:57;4.75;;;2.92;;
76477;SDS011;65309;49.790;18.972;2023-04-21T15:53:00;4.63;;;4.18;;
76477;SDS011;65309;49.790;18.972;2023-04-21T15:58:04;3.28;;;2.88;;
76477;SDS011;65309;49.790;18.972;2023-04-21T16:03:08;4.53;;;3.58;;
76477;SDS011;65309;49.790;18.972;2023-04-21T16:08:11;4.13;;;3.28;;
76477;SDS011;65309;49.790;18.972;2023-04-21T16:13:13;5.13;;;3.40;;
76477;SDS011;65309;49.790;18.972;2023-04-21T16:18:16;3.67;;;2.97;;
76477;SDS011;65309;49.790;18.972;2023-04-21T16:23:18;5.07;;;3.65;;
76477;SDS011;65309;49.790;18.972;2023-04-21T16:28:21;4.45;;;3.10;;
76477;SDS011;65309;49.790;18.972;2023-04-21T16:33:24;4.25;;;3.13;;
76477;SDS011;65309;49.790;18.972;2023-04-21T16:38:26;5.93;;;3.92;;
76477;SDS011;65309;49.790;18.972;2023-04-21T16:43:28;4.18;;;3.47;;
76477;SDS011;65309;49.790;18.972;2023-04-21T16:48:32;5.55;;;3.60;;
76477;SDS011;65309;49.790;18.972;2023-04-21T16:53:34;6.03;;;4.30;;
76477;SDS011;65309;49.790;18.972;2023-04-21T16:58:38;7.80;;;4.88;;
76477;SDS011;65309;49.790;18.972;2023-04-21T17:03:42;7.38;;;5.25;;
76477;SDS011;65309;49.790;18.972;2023-04-21T17:08:44;9.52;;;4.72;;
76477;SDS011;65309;49.790;18.972;2023-04-21T17:13:47;7.18;;;4.50;;
76477;SDS011;65309;49.790;18.972;2023-04-21T17:18:50;6.68;;;3.72;;
76477;SDS011;65309;49.790;18.972;2023-04-21T17:23:52;5.53;;;3.90;;
76477;SDS011;65309;49.790;18.972;2023-04-21T17:28:54;5.45;;;4.10;;
76477;SDS011;65309;49.790;18.972;2023-04-21T17:33:59;5.55;;;4.20;;
76477;SDS011;65309;49.790;18.972;2023-04-21T17:39:01;6.57;;;4.43;;
76477;SDS011;65309;49.790;18.972;2023-04-21T17:44:03;7.28;;;4.50;;
76477;SDS011;65309;49.790;18.972;2023-04-21T17:49:06;10.93;;;5.30;;
76477;SDS011;65309;49.790;18.972;2023-04-21T17:54:08;7.72;;;5.07;;
76477;SDS011;65309;49.790;18.972;2023-04-21T17:59:10;10.43;;;4.90;;
76477;SDS011;65309;49.790;18.972;2023-04-21T18:04:14;8.00;;;4.55;;
76477;SDS011;65309;49.790;18.972;2023-04-21T18:09:17;8.50;;;5.45;;
76477;SDS011;65309;49.790;18.972;2023-04-21T18:14:20;7.03;;;4.05;;
76477;SDS011;65309;49.790;18.972;2023-04-21T18:19:23;6.03;;;3.65;;
76477;SDS011;65309;49.790;18.972;2023-04-21T18:24:25;5.55;;;3.80;;
76477;SDS011;65309;49.790;18.972;2023-04-21T18:29:27;4.50;;;3.60;;
76477;SDS011;65309;49.790;18.972;2023-04-21T18:34:31;5.43;;;4.10;;
76477;SDS011;65309;49.790;18.972;2023-04-21T18:39:33;4.60;;;3.58;;
76477;SDS011;65309;49.790;18.972;2023-04-21T18:44:35;7.45;;;4.28;;
76477;SDS011;65309;49.790;18.972;2023-04-21T18:49:39;5.03;;;3.92;;
76477;SDS011;65309;49.790;18.972;2023-04-21T18:54:41;5.28;;;3.92;;
76477;SDS011;65309;49.790;18.972;2023-04-21T18:59:43;5.28;;;4.43;;
76477;SDS011;65309;49.790;18.972;2023-04-21T19:04:46;4.53;;;3.30;;
76477;SDS011;65309;49.790;18.972;2023-04-21T19:09:48;5.55;;;4.45;;
76477;SDS011;65309;49.790;18.972;2023-04-21T19:14:52;4.40;;;3.95;;
76477;SDS011;65309;49.790;18.972;2023-04-21T19:19:56;8.00;;;4.00;;
76477;SDS011;65309;49.790;18.972;2023-04-21T19:24:58;4.85;;;3.92;;
76477;SDS011;65309;49.790;18.972;2023-04-21T19:30:01;6.20;;;4.10;;
76477;SDS011;65309;49.790;18.972;2023-04-21T19:35:05;5.28;;;3.90;;
76477;SDS011;65309;49.790;18.972;2023-04-21T19:40:09;4.85;;;3.45;;
76477;SDS011;65309;49.790;18.972;2023-04-21T19:45:11;4.95;;;3.13;;
76477;SDS011;65309;49.790;18.972;2023-04-21T19:50:14;5.35;;;3.97;;
76477;SDS011;65309;49.790;18.972;2023-04-21T19:55:16;6.07;;;3.35;;
76477;SDS011;65309;49.790;18.972;2023-04-21T20:00:19;5.90;;;3.95;;
76477;SDS011;65309;49.790;18.972;2023-04-21T20:05:23;6.70;;;4.80;;
76477;SDS011;65309;49.790;18.972;2023-04-21T20:10:25;6.32;;;4.28;;
76477;SDS011;65309;49.790;18.972;2023-04-21T20:15:27;5.78;;;4.03;;
76477;SDS011;65309;49.790;18.972;2023-04-21T20:20:30;4.20;;;3.58;;
76477;SDS011;65309;49.790;18.972;2023-04-21T20:25:32;5.80;;;3.80;;
76477;SDS011;65309;49.790;18.972;2023-04-21T20:30:34;6.68;;;4.45;;
76477;SDS011;65309;49.790;18.972;2023-04-21T20:35:38;6.55;;;3.40;;
76477;SDS011;65309;49.790;18.972;2023-04-21T20:40:42;3.92;;;3.10;;
76477;SDS011;65309;49.790;18.972;2023-04-21T20:45:44;4.60;;;3.30;;
76477;SDS011;65309;49.790;18.972;2023-04-21T20:50:49;5.45;;;3.30;;
76477;SDS011;65309;49.790;18.972;2023-04-21T20:55:52;7.65;;;3.65;;
76477;SDS011;65309;49.790;18.972;2023-04-21T21:00:54;8.98;;;3.42;;
76477;SDS011;65309;49.790;18.972;2023-04-21T21:05:58;4.15;;;3.53;;
76477;SDS011;65309;49.790;18.972;2023-04-21T21:16:02;4.90;;;2.72;;
76477;SDS011;65309;49.790;18.972;2023-04-21T21:21:05;5.05;;;4.22;;
76477;SDS011;65309;49.790;18.972;2023-04-21T21:26:07;5.65;;;3.13;;
76477;SDS011;65309;49.790;18.972;2023-04-21T21:31:09;4.20;;;3.47;;
76477;SDS011;65309;49.790;18.972;2023-04-21T21:36:13;5.05;;;3.08;;
76477;SDS011;65309;49.790;18.972;2023-04-21T21:46:19;3.88;;;2.92;;
76477;SDS011;65309;49.790;18.972;2023-04-21T21:51:24;6.13;;;3.05;;
76477;SDS011;65309;49.790;18.972;2023-04-21T21:56:26;4.60;;;2.92;;
76477;SDS011;65309;49.790;18.972;2023-04-21T22:01:28;2.95;;;2.05;;
76477;SDS011;65309;49.790;18.972;2023-04-21T22:06:31;4.10;;;3.25;;
76477;SDS011;65309;49.790;18.972;2023-04-21T22:11:35;5.20;;;3.30;;
76477;SDS011;65309;49.790;18.972;2023-04-21T22:16:37;4.45;;;2.80;;
76477;SDS011;65309;49.790;18.972;2023-04-21T22:21:44;2.80;;;2.05;;
76477;SDS011;65309;49.790;18.972;2023-04-21T22:26:46;3.67;;;2.80;;
76477;SDS011;65309;49.790;18.972;2023-04-21T22:31:48;4.78;;;3.03;;
76477;SDS011;65309;49.790;18.972;2023-04-21T22:36:51;4.22;;;3.08;;
76477;SDS011;65309;49.790;18.972;2023-04-21T22:46:56;6.45;;;3.25;;
76477;SDS011;65309;49.790;18.972;2023-04-21T22:51:59;5.10;;;2.78;;
76477;SDS011;65309;49.790;18.972;2023-04-21T22:57:02;2.80;;;2.05;;
76477;SDS011;65309;49.790;18.972;2023-04-21T23:02:04;4.03;;;2.88;;
76477;SDS011;65309;49.790;18.972;2023-04-21T23:07:07;4.05;;;3.05;;
76477;SDS011;65309;49.790;18.972;2023-04-21T23:12:09;5.15;;;2.42;;
76477;SDS011;65309;49.790;18.972;2023-04-21T23:17:11;3.47;;;3.17;;
76477;SDS011;65309;49.790;18.972;2023-04-21T23:22:14;4.07;;;2.80;;
76477;SDS011;65309;49.790;18.972;2023-04-21T23:27:16;3.58;;;2.65;;
76477;SDS011;65309;49.790;18.972;2023-04-21T23:32:19;3.17;;;2.83;;
76477;SDS011;65309;49.790;18.972;2023-04-21T23:37:22;4.00;;;2.80;;
76477;SDS011;65309;49.790;18.972;2023-04-21T23:42:24;3.75;;;2.42;;
76477;SDS011;65309;49.790;18.972;2023-04-21T23:47:26;3.80;;;2.35;;
76477;SDS011;65309;49.790;18.972;2023-04-21T23:52:29;3.42;;;2.35;;
76477;SDS011;65309;49.790;18.972;2023-04-21T23:57:32;5.63;;;2.55;;
